Time;durP1;ratioP1;P1;durP2;ratioP2;P2;SDS_P1;SDS_P2;PMS_P1;PMS_P2;Temp;Humidity;BMP_temperature;BMP_pressure;BME280_temperature;BME280_humidity;BME280_pressure;Samples;Min_cycle;Max_cycle;Signal;HPM_P1;HPM_P2
2024/04/02 00:01:06;;;;;;;1.15;0.90;;;;;;;7.91;100.00;99306.75;5028337;28;20038;-78
2024/04/02 00:03:33;;;;;;;1.27;1.10;;;;;;;7.90;100.00;99308.53;5013207;28;20072;-77
2024/04/02 00:05:59;;;;;;;1.10;1.00;;;;;;;7.92;100.00;99311.09;5013436;28;20046;-76
2024/04/02 00:08:28;;;;;;;2.13;1.05;;;;;;;7.22;100.00;99204.19;4983287;28;20099;-78
2024/04/02 00:10:54;;;;;;;1.40;0.80;;;;;;;7.83;100.00;99301.91;5011748;28;20034;-77
2024/04/02 00:13:23;;;;;;;2.42;1.00;;;;;;;7.89;100.00;99314.75;4982129;28;20283;-77
2024/04/02 00:15:49;;;;;;;1.10;0.80;;;;;;;7.77;100.00;99288.19;5001412;28;20093;-76
2024/04/02 00:18:17;;;;;;;2.90;0.95;;;;;;;7.35;100.00;99221.91;5027650;28;20045;-78
2024/04/02 00:20:44;;;;;;;3.33;0.90;;;;;;;7.06;100.00;99166.44;4996018;28;20064;-77
2024/04/02 00:23:11;;;;;;;2.05;0.98;;;;;;;7.90;100.00;99316.44;5014947;28;20045;-77
2024/04/02 00:25:37;;;;;;;1.95;1.10;;;;;;;7.87;100.00;99313.16;5035576;28;20069;-75
2024/04/02 00:28:05;;;;;;;1.63;0.80;;;;;;;7.71;100.00;99290.22;5013031;28;20065;-78
2024/04/02 00:30:36;;;;;;;2.55;1.25;;;;;;;7.65;100.00;99287.94;5012775;28;20053;-77
2024/04/02 00:33:04;;;;;;;1.10;0.80;;;;;;;7.84;100.00;99329.13;5014223;28;20060;-76
2024/04/02 00:35:30;;;;;;;2.22;0.98;;;;;;;7.81;100.00;99327.50;4997521;28;20069;-76
2024/04/02 00:37:57;;;;;;;3.88;1.00;;;;;;;7.69;100.00;99304.44;4995937;28;20427;-78
2024/04/02 00:40:23;;;;;;;1.73;0.80;;;;;;;7.55;100.00;99289.34;4998293;28;20539;-76
2024/04/02 00:42:50;;;;;;;1.38;0.80;;;;;;;7.64;100.00;99307.28;5011904;28;20132;-76
2024/04/02 00:45:15;;;;;;;2.47;0.90;;;;;;;7.25;100.00;99246.13;5011381;28;20080;-78
2024/04/02 00:47:44;;;;;;;1.45;0.77;;;;;;;7.39;100.00;99275.28;5011990;28;20037;-78
2024/04/02 00:50:10;;;;;;;0.70;0.70;;;;;;;7.49;100.00;99299.34;5001755;28;20073;-78
2024/04/02 00:52:38;;;;;;;1.58;0.90;;;;;;;7.58;100.00;99314.66;5009054;28;20566;-77
2024/04/02 00:55:04;;;;;;;1.00;0.57;;;;;;;7.75;100.00;99357.66;5028126;28;20065;-76
2024/04/02 00:57:31;;;;;;;1.15;0.70;;;;;;;7.72;100.00;99356.94;4994762;28;20233;-77
2024/04/02 01:00:01;;;;;;;2.42;1.40;;;;;;;7.46;100.00;99324.06;5012646;28;20075;-77
2024/04/02 01:02:28;;;;;;;1.65;1.02;;;;;;;7.17;100.00;99286.03;5044169;28;20686;-76
2024/04/02 01:04:56;;;;;;;2.55;0.82;;;;;;;7.70;100.00;99372.00;5015175;28;20472;-77
2024/04/02 01:07:23;;;;;;;2.38;0.88;;;;;;;7.72;100.00;99372.75;5011283;28;20046;-76
2024/04/02 01:09:49;;;;;;;1.60;0.85;;;;;;;7.72;100.00;99372.75;4995248;28;20148;-76
2024/04/02 01:12:16;;;;;;;1.42;0.70;;;;;;;7.69;100.00;99367.66;5046312;28;20069;-78
2024/04/02 01:14:43;;;;;;;2.45;1.00;;;;;;;7.73;100.00;99379.72;5002526;28;20041;-77
2024/04/02 01:17:10;;;;;;;2.33;1.30;;;;;;;7.15;100.00;99293.16;5010823;28;20069;-76
2024/04/02 01:19:38;;;;;;;3.25;0.88;;;;;;;7.57;100.00;99357.72;5002900;28;20070;-77
2024/04/02 01:22:08;;;;;;;1.25;0.73;;;;;;;7.70;100.00;99386.03;5026440;28;20045;-78
2024/04/02 01:24:34;;;;;;;1.58;0.60;;;;;;;7.74;100.00;99390.19;5012936;28;20618;-77
2024/04/02 01:27:03;;;;;;;1.33;0.70;;;;;;;7.71;100.00;99397.44;5005844;28;20058;-79
2024/04/02 01:29:29;;;;;;;2.47;0.60;;;;;;;7.49;100.00;99354.66;5017127;28;20041;-77
2024/04/02 01:31:56;;;;;;;1.63;0.60;;;;;;;7.65;100.00;99390.69;5016814;28;20047;-77
2024/04/02 01:34:22;;;;;;;0.98;0.65;;;;;;;7.65;100.00;99397.72;5029072;28;20523;-77
2024/04/02 01:36:49;;;;;;;0.73;0.70;;;;;;;7.60;100.00;99402.38;5009743;28;20042;-77
2024/04/02 01:39:15;;;;;;;2.08;0.80;;;;;;;7.57;100.00;99397.25;5025135;28;20049;-76
2024/04/02 01:41:42;;;;;;;2.17;0.80;;;;;;;6.18;100.00;99169.09;5007660;28;20060;-77
2024/04/02 01:44:10;;;;;;;1.58;0.90;;;;;;;6.79;100.00;99281.81;5018550;28;20079;-76
2024/04/02 01:46:40;;;;;;;3.67;0.90;;;;;;;7.52;100.00;99402.78;5021464;28;20034;-78
2024/04/02 01:49:07;;;;;;;;;;;;;;;7.53;100.00;99404.47;5010880;28;20045;-76
2024/04/02 01:51:33;;;;;;;1.70;1.00;;;;;;;7.51;100.00;99400.22;5018366;28;19921;-77
2024/04/02 01:53:59;;;;;;;2.67;0.70;;;;;;;7.48;100.00;99401.22;4999165;28;20057;-79
2024/04/02 01:56:26;;;;;;;1.50;0.70;;;;;;;6.99;100.00;99331.69;4995894;28;20045;-76
2024/04/02 01:58:52;;;;;;;2.10;0.65;;;;;;;6.86;100.00;99307.78;5007962;28;20521;-77
2024/04/02 02:01:21;;;;;;;2.95;0.85;;;;;;;7.51;100.00;99416.03;4993930;28;20045;-81
2024/04/02 02:03:47;;;;;;;2.72;0.60;;;;;;;7.55;100.00;99418.44;5017631;28;20071;-78
2024/04/02 02:06:14;;;;;;;1.95;0.60;;;;;;;7.45;100.00;99395.25;5011801;28;20053;-78
2024/04/02 02:08:40;;;;;;;2.20;0.90;;;;;;;7.60;100.00;99424.31;4994859;28;20045;-77
2024/04/02 02:11:09;;;;;;;1.40;0.63;;;;;;;7.66;100.00;99415.25;5011874;28;20740;-78
2024/04/02 02:13:37;;;;;;;4.43;0.60;;;;;;;7.18;100.00;99340.41;5027572;28;20564;-77
2024/04/02 02:16:05;;;;;;;2.78;1.40;;;;;;;7.58;100.00;99399.81;5019510;28;20124;-76
2024/04/02 02:18:34;;;;;;;0.80;0.60;;;;;;;7.17;100.00;99353.63;5019082;28;20069;-77
2024/04/02 02:21:02;;;;;;;3.15;0.90;;;;;;;7.17;100.00;99351.84;4995325;28;20065;-76
2024/04/02 02:23:28;;;;;;;4.60;0.80;;;;;;;7.51;100.00;99423.94;4990934;28;20049;-77
2024/04/02 02:25:57;;;;;;;3.63;0.75;;;;;;;6.94;100.00;99337.19;5028494;28;20041;-76
2024/04/02 02:28:23;;;;;;;2.50;0.85;;;;;;;6.97;100.00;99346.72;5026398;28;20049;-78
2024/04/02 02:30:51;;;;;;;1.63;0.73;;;;;;;7.17;100.00;99380.81;5011464;28;20040;-77
2024/04/02 02:33:17;;;;;;;1.50;0.50;;;;;;;7.17;100.00;99390.50;4994836;28;20073;-78
2024/04/02 02:35:55;;;;;;;1.60;0.60;;;;;;;7.49;100.00;99431.03;5015988;28;20084;-77
2024/04/02 02:38:21;;;;;;;2.30;0.90;;;;;;;7.49;100.00;99433.69;4991232;28;20045;-78
2024/04/02 02:40:49;;;;;;;4.97;1.00;;;;;;;7.05;100.00;99368.25;4998126;28;20049;-79
2024/04/02 02:43:15;;;;;;;2.28;0.80;;;;;;;7.58;100.00;99443.75;5018198;28;20045;-77
2024/04/02 02:45:50;;;;;;;1.13;0.70;;;;;;;7.65;100.00;99447.78;5021534;28;20060;-77
2024/04/02 02:48:16;;;;;;;3.38;0.75;;;;;;;7.72;100.00;99452.66;5004743;28;20096;-76
2024/04/02 02:50:44;;;;;;;1.73;1.00;;;;;;;7.59;100.00;99427.88;5036926;28;20041;-77
2024/04/02 02:53:13;;;;;;;1.63;0.90;;;;;;;6.63;100.00;99272.03;5009595;28;20073;-77
2024/04/02 02:55:40;;;;;;;3.10;0.90;;;;;;;7.74;100.00;99453.44;5011764;28;20061;-77
2024/04/02 02:58:06;;;;;;;1.20;0.73;;;;;;;7.82;100.00;99463.63;5010469;28;20056;-76
2024/04/02 03:00:39;;;;;;;3.03;0.80;;;;;;;7.33;100.00;99365.97;5028363;28;20540;-78
2024/04/02 03:03:05;;;;;;;1.98;0.70;;;;;;;7.78;100.00;99440.13;4998760;28;20061;-77
2024/04/02 03:05:36;;;;;;;2.03;0.90;;;;;;;7.95;100.00;99467.34;5045176;28;20440;-77
2024/04/02 03:08:02;;;;;;;1.85;0.60;;;;;;;7.78;100.00;99435.69;5027469;28;20061;-76
2024/04/02 03:10:30;;;;;;;3.45;1.15;;;;;;;7.59;100.00;99396.25;4993599;28;20078;-76
2024/04/02 03:12:57;;;;;;;2.97;0.70;;;;;;;8.07;100.00;99473.75;5031513;28;20065;-78
2024/04/02 03:15:25;;;;;;;1.88;0.80;;;;;;;8.04;100.00;99464.22;5011624;28;20042;-77
2024/04/02 03:17:51;;;;;;;2.63;0.90;;;;;;;8.16;100.00;99477.72;4995512;28;20045;-76
2024/04/02 03:20:18;;;;;;;3.30;0.80;;;;;;;7.84;100.00;99424.00;5009493;28;20112;-77
2024/04/02 03:22:45;;;;;;;1.98;0.80;;;;;;;8.15;100.00;99458.41;5000674;28;20121;-77
2024/04/02 03:25:12;;;;;;;3.67;1.00;;;;;;;8.13;100.00;99462.03;5029410;28;20321;-78
2024/04/02 03:27:40;;;;;;;1.77;0.73;;;;;;;7.82;100.00;99412.69;4996820;28;20033;-76
2024/04/02 03:30:08;;;;;;;1.67;0.77;;;;;;;8.23;100.00;99479.09;5033708;28;20048;-78
2024/04/02 03:32:34;;;;;;;1.88;1.02;;;;;;;7.73;100.00;99400.81;5002006;28;20140;-77
2024/04/02 03:35:01;;;;;;;2.25;0.95;;;;;;;7.68;100.00;99392.31;4994570;28;20065;-77
2024/04/02 03:37:28;;;;;;;2.40;0.93;;;;;;;8.24;100.00;99481.66;5014121;28;20056;-78
2024/04/02 03:39:54;;;;;;;3.05;0.98;;;;;;;8.24;100.00;99479.00;5014884;28;20041;-77
2024/04/02 03:42:21;;;;;;;2.50;1.08;;;;;;;7.34;100.00;99329.94;4998880;28;20133;-78
2024/04/02 03:44:49;;;;;;;1.60;0.95;;;;;;;7.56;100.00;99364.78;4998168;28;20531;-77
2024/04/02 03:47:16;;;;;;;4.30;0.90;;;;;;;8.26;100.00;99485.06;5029841;28;20092;-77
2024/04/02 03:49:45;;;;;;;1.77;1.00;;;;;;;7.72;100.00;99391.19;5012405;28;20412;-78
2024/04/02 03:52:11;;;;;;;3.22;1.20;;;;;;;8.26;100.00;99482.44;5006965;28;20037;-79
2024/04/02 03:54:38;;;;;;;2.15;0.93;;;;;;;8.26;100.00;99485.06;5009807;28;20124;-77
2024/04/02 03:57:04;;;;;;;3.05;1.77;;;;;;;7.73;100.00;99379.72;5015680;28;20064;-77
2024/04/02 03:59:34;;;;;;;2.55;1.02;;;;;;;8.31;100.00;99490.09;4998361;28;20088;-78
2024/04/02 04:02:01;;;;;;;3.23;1.20;;;;;;;7.42;100.00;99340.94;5018711;28;20064;-77
2024/04/02 04:04:31;;;;;;;1.95;0.98;;;;;;;7.96;100.00;99424.22;5047041;28;20084;-78
2024/04/02 04:06:57;;;;;;;1.30;1.02;;;;;;;7.27;100.00;99310.97;5014646;28;20571;-77
2024/04/02 04:09:24;;;;;;;1.17;0.93;;;;;;;7.55;100.00;99355.22;4993776;28;20089;-79
2024/04/02 04:11:51;;;;;;;3.17;1.27;;;;;;;8.24;100.00;99471.09;4992769;28;20073;-77
2024/04/02 04:14:18;;;;;;;2.35;1.05;;;;;;;8.36;100.00;99494.22;5036187;28;20075;-77
2024/04/02 04:16:45;;;;;;;2.75;1.15;;;;;;;8.31;100.00;99501.50;4980123;28;20042;-78
2024/04/02 04:19:13;;;;;;;2.88;1.23;;;;;;;8.28;100.00;99506.94;4978706;28;20081;-77
2024/04/02 04:21:39;;;;;;;4.00;1.17;;;;;;;7.61;100.00;99396.19;4997308;28;20033;-77
2024/04/02 04:24:06;;;;;;;3.17;1.20;;;;;;;8.32;100.00;99532.28;5028271;28;20075;-78
2024/04/02 04:26:32;;;;;;;2.60;0.98;;;;;;;7.83;100.00;99432.84;4997863;28;20566;-76
2024/04/02 04:28:59;;;;;;;1.10;1.00;;;;;;;8.32;100.00;99515.59;5001708;28;20034;-78
2024/04/02 04:31:26;;;;;;;1.92;0.98;;;;;;;8.33;100.00;99515.50;4986694;28;20108;-77
2024/04/02 04:33:53;;;;;;;4.10;1.20;;;;;;;8.33;100.00;99517.28;4996895;28;20041;-77
2024/04/02 04:36:21;;;;;;;1.73;1.17;;;;;;;8.29;100.00;99527.13;4980173;28;20088;-77
2024/04/02 04:38:50;;;;;;;2.40;1.00;;;;;;;8.28;100.00;99527.19;5002592;28;20037;-78
2024/04/02 04:41:17;;;;;;;2.70;1.30;;;;;;;8.00;100.00;99489.06;5012267;28;20573;-76
2024/04/02 04:43:50;;;;;;;1.83;1.00;;;;;;;8.08;100.00;99465.75;5031388;28;20069;-76
2024/04/02 04:46:17;;;;;;;2.42;1.10;;;;;;;8.41;100.00;99525.66;4997928;28;20041;-78
2024/04/02 04:48:44;;;;;;;1.15;1.00;;;;;;;8.15;100.00;99473.38;5026120;28;20451;-79
2024/04/02 04:51:10;;;;;;;1.60;1.08;;;;;;;8.35;100.00;99508.34;5025105;28;20076;-77
2024/04/02 04:53:40;;;;;;;3.10;1.27;;;;;;;8.48;100.00;99532.34;5009892;28;20053;-77
2024/04/02 04:56:06;;;;;;;2.03;1.38;;;;;;;8.24;100.00;99496.63;5009617;28;20065;-77
2024/04/02 04:58:35;;;;;;;1.38;1.10;;;;;;;8.33;100.00;99512.88;4994721;28;20080;-76
2024/04/02 05:01:02;;;;;;;2.00;1.23;;;;;;;8.31;100.00;99516.50;5017642;28;20057;-77
2024/04/02 05:03:30;;;;;;;3.25;1.15;;;;;;;8.40;100.00;99539.78;5010187;28;20444;-77
2024/04/02 05:06:02;;;;;;;2.17;1.30;;;;;;;8.39;100.00;99543.34;5012561;28;20100;-78
2024/04/02 05:08:29;;;;;;;2.05;1.20;;;;;;;8.41;100.00;99552.03;5043085;28;20041;-75
2024/04/02 05:10:56;;;;;;;1.70;0.98;;;;;;;7.99;100.00;99484.72;5008795;28;20448;-77
2024/04/02 05:13:24;;;;;;;2.17;1.10;;;;;;;8.45;100.00;99543.03;5035183;28;20503;-78
2024/04/02 05:15:50;;;;;;;2.17;1.20;;;;;;;8.53;100.00;99558.44;4999101;28;20435;-77
2024/04/02 05:18:17;;;;;;;3.28;1.08;;;;;;;8.51;100.00;99555.88;5010964;28;20448;-79
2024/04/02 05:20:43;;;;;;;3.30;1.02;;;;;;;8.42;100.00;99564.28;5026416;28;20084;-77
2024/04/02 05:23:11;;;;;;;4.30;1.40;;;;;;;7.66;100.00;99431.91;5018366;28;20037;-77
2024/04/02 05:25:37;;;;;;;2.28;1.48;;;;;;;8.47;100.00;99570.19;5003608;28;20128;-78
2024/04/02 05:28:07;;;;;;;3.28;1.20;;;;;;;8.49;100.00;99575.41;4992631;28;20078;-77
2024/04/02 05:30:34;;;;;;;2.40;1.30;;;;;;;8.40;100.00;99564.38;4990835;28;20064;-78
2024/04/02 05:33:01;;;;;;;2.42;1.33;;;;;;;8.50;100.00;99588.47;5023113;28;20500;-77
2024/04/02 05:35:27;;;;;;;3.25;1.25;;;;;;;8.51;100.00;99571.72;4997684;28;20081;-77
2024/04/02 05:37:55;;;;;;;2.05;1.30;;;;;;;8.21;100.00;99515.22;5013218;28;20076;-77
2024/04/02 05:40:24;;;;;;;3.05;1.27;;;;;;;8.18;100.00;99508.34;5008560;28;20046;-78
2024/04/02 05:42:52;;;;;;;3.38;1.48;;;;;;;8.62;100.00;99572.03;5003988;28;20041;-78
2024/04/02 05:45:19;;;;;;;3.33;1.42;;;;;;;7.64;100.00;99406.56;5009694;28;20045;-77
2024/04/02 05:47:46;;;;;;;3.53;1.58;;;;;;;8.62;100.00;99571.19;4996956;28;20122;-78
2024/04/02 05:50:12;;;;;;;3.22;1.58;;;;;;;8.65;100.00;99579.81;4991864;28;20072;-77
2024/04/02 05:52:39;;;;;;;2.47;1.58;;;;;;;8.50;100.00;99559.47;5011462;28;20051;-77
2024/04/02 05:55:06;;;;;;;3.35;1.98;;;;;;;8.65;100.00;99585.09;5007294;28;20045;-77
2024/04/02 05:57:33;;;;;;;2.53;1.67;;;;;;;8.66;100.00;99586.75;5016583;28;20053;-77
2024/04/02 05:59:59;;;;;;;2.72;1.70;;;;;;;8.69;100.00;99578.69;5005282;28;20053;-76
2024/04/02 06:02:27;;;;;;;3.50;1.92;;;;;;;8.26;100.00;99510.59;5018935;28;20045;-78
2024/04/02 06:04:53;;;;;;;2.47;1.60;;;;;;;8.89;100.00;99590.84;5008868;28;20035;-77
2024/04/02 06:07:22;;;;;;;4.78;1.70;;;;;;;8.73;100.00;99553.84;5021668;28;20042;-76
2024/04/02 06:09:48;;;;;;;3.60;1.50;;;;;;;9.02;100.00;99607.75;5039073;28;20090;-76
2024/04/02 06:12:15;;;;;;;1.55;1.15;;;;;;;9.08;100.00;99603.94;5038204;28;20042;-77
2024/04/02 06:14:41;;;;;;;3.92;1.90;;;;;;;9.12;100.00;99594.94;5023179;28;20091;-78
2024/04/02 06:17:11;;;;;;;2.42;1.83;;;;;;;8.27;100.00;99468.31;5041980;28;20053;-77
2024/04/02 06:19:39;;;;;;;5.85;1.70;;;;;;;8.02;100.00;99449.44;5017567;28;20049;-77
2024/04/02 06:22:06;;;;;;;4.25;1.70;;;;;;;9.05;100.00;99612.88;5024526;28;20042;-77
2024/04/02 06:24:33;;;;;;;4.38;2.15;;;;;;;9.02;100.00;99617.47;5008565;28;20080;-76
2024/04/02 06:27:00;;;;;;;7.03;2.05;;;;;;;8.43;100.00;99529.91;5041862;28;20045;-77
2024/04/02 06:29:32;;;;;;;2.15;1.50;;;;;;;8.64;100.00;99570.19;5025881;28;20045;-76
2024/04/02 06:32:01;;;;;;;2.13;1.58;;;;;;;7.98;100.00;99461.06;5022792;28;20078;-76
2024/04/02 06:34:28;;;;;;;3.08;1.67;;;;;;;8.66;100.00;99573.56;5009489;28;20129;-76
2024/04/02 06:36:56;;;;;;;4.38;1.98;;;;;;;8.10;100.00;99479.72;5019133;28;20072;-76
2024/04/02 06:39:22;;;;;;;2.65;1.52;;;;;;;8.91;100.00;99625.97;5023135;28;20041;-76
2024/04/02 06:41:49;;;;;;;2.65;1.95;;;;;;;8.72;100.00;99604.09;5036886;28;20057;-76
2024/04/02 06:44:15;;;;;;;3.45;1.67;;;;;;;8.83;100.00;99627.28;5006026;28;20049;-76
2024/04/02 06:46:45;;;;;;;3.08;2.10;;;;;;;8.83;100.00;99629.91;5024302;28;20056;-75
2024/04/02 06:49:12;;;;;;;2.75;1.40;;;;;;;7.76;100.00;99440.19;5037484;28;20063;-77
2024/04/02 06:51:39;;;;;;;3.70;1.50;;;;;;;8.99;100.00;99644.88;5003727;28;20041;-75
2024/04/02 06:54:07;;;;;;;3.00;1.30;;;;;;;8.28;100.00;99524.56;5026826;28;20025;-77
2024/04/02 06:56:33;;;;;;;2.33;1.58;;;;;;;8.36;100.00;99528.53;5008908;28;20450;-78
2024/04/02 06:59:01;;;;;;;2.67;1.45;;;;;;;9.07;100.00;99657.69;5034678;28;20037;-78
2024/04/02 07:01:28;;;;;;;3.88;1.50;;;;;;;8.76;100.00;99616.19;5021210;28;20045;-78
2024/04/02 07:03:57;;;;;;;4.88;1.55;;;;;;;9.05;100.00;99651.63;5018200;28;20048;-77
2024/04/02 07:06:23;;;;;;;4.32;1.50;;;;;;;8.75;100.00;99583.66;4999319;28;20061;-77
2024/04/02 07:08:51;;;;;;;1.77;1.40;;;;;;;9.22;100.00;99645.47;5006167;28;20069;-77
2024/04/02 07:11:19;;;;;;;2.00;1.30;;;;;;;9.28;100.00;99651.28;4997246;28;20061;-77
2024/04/02 07:13:46;;;;;;;5.15;2.30;;;;;;;9.38;100.00;99657.78;4986996;28;20065;-77
2024/04/02 07:16:12;;;;;;;2.58;1.40;;;;;;;9.47;100.00;99654.63;5016906;28;20046;-76
2024/04/02 07:18:40;;;;;;;3.67;1.70;;;;;;;9.20;100.00;99602.41;5014859;28;20156;-78
2024/04/02 07:21:07;;;;;;;2.60;1.40;;;;;;;9.26;100.00;99602.97;4993485;28;20058;-77
2024/04/02 07:23:36;;;;;;;4.78;1.52;;;;;;;9.62;100.00;99667.94;5002469;28;20103;-77
2024/04/02 07:26:03;;;;;;;2.35;1.20;;;;;;;9.36;100.00;99633.22;5009662;28;20145;-76
2024/04/02 07:28:33;;;;;;;4.97;1.52;;;;;;;9.43;100.00;99661.03;5032456;28;20057;-76
2024/04/02 07:31:00;;;;;;;4.63;1.98;;;;;;;9.53;100.00;99677.22;5021150;28;20064;-78
2024/04/02 07:33:29;;;;;;;2.17;1.30;;;;;;;9.49;100.00;99650.09;5025284;28;20033;-77
2024/04/02 07:35:55;;;;;;;5.15;1.20;;;;;;;9.71;100.00;99678.88;5004193;28;20045;-77
2024/04/02 07:38:22;;;;;;;2.55;1.17;;;;;;;9.73;100.00;99676.16;5054658;28;20068;-77
2024/04/02 07:40:49;;;;;;;2.97;0.98;;;;;;;9.43;100.00;99642.53;5016617;28;20041;-77
2024/04/02 07:43:17;;;;;;;2.00;1.02;;;;;;;9.70;100.00;99686.88;5016813;28;20054;-77
2024/04/02 07:45:51;;;;;;;4.57;1.05;;;;;;;9.72;100.00;99677.09;5017884;28;20113;-77
2024/04/02 07:48:20;;;;;;;3.08;1.33;;;;;;;9.74;100.00;99670.78;5001866;28;20095;-77
2024/04/02 07:50:46;;;;;;;3.92;1.33;;;;;;;9.80;100.00;99666.94;4962683;28;20519;-76
2024/04/02 07:53:13;;;;;;;2.78;1.40;;;;;;;9.74;100.00;99643.50;5001942;28;20116;-78
2024/04/02 07:55:40;;;;;;;4.57;1.80;;;;;;;9.64;100.00;99610.56;5026545;28;20041;-76
2024/04/02 07:58:07;;;;;;;4.38;1.20;;;;;;;9.98;100.00;99686.22;5009548;28;20137;-77
2024/04/02 08:00:33;;;;;;;4.43;1.42;;;;;;;9.88;100.00;99662.09;4975061;28;20095;-77
2024/04/02 08:03:01;;;;;;;5.32;1.30;;;;;;;9.49;100.00;99599.03;5025604;28;20037;-76
2024/04/02 08:05:27;;;;;;;3.92;1.30;;;;;;;9.77;100.00;99643.31;4993550;28;20038;-78
2024/04/02 08:07:54;;;;;;;5.35;1.60;;;;;;;10.06;100.00;99671.63;5006031;28;20064;-78
2024/04/02 08:10:20;;;;;;;6.43;1.30;;;;;;;10.44;100.00;99697.72;4991807;28;20069;-77
2024/04/02 08:12:51;;;;;;;8.23;1.27;;;;;;;10.59;100.00;99680.97;5005927;28;20096;-76
2024/04/02 08:15:18;;;;;;;5.53;1.50;;;;;;;10.89;100.00;99699.50;5002830;28;20076;-75
2024/04/02 08:17:45;;;;;;;5.57;1.40;;;;;;;11.20;100.00;99698.50;5008321;28;20033;-76
2024/04/02 08:20:14;;;;;;;3.60;1.65;;;;;;;11.03;100.00;99643.03;5004549;28;20220;-76
2024/04/02 08:22:41;;;;;;;4.78;1.30;;;;;;;11.70;100.00;99699.84;5003930;28;20500;-77
2024/04/02 08:25:10;;;;;;;5.30;1.52;;;;;;;11.94;100.00;99698.34;4992444;28;20465;-77
2024/04/02 08:27:36;;;;;;;3.75;1.00;;;;;;;11.89;100.00;99660.63;5023464;28;20045;-77
2024/04/02 08:30:08;;;;;;;2.17;0.98;;;;;;;12.31;100.00;99710.09;4990580;28;20134;-76
2024/04/02 08:32:35;;;;;;;3.72;1.05;;;;;;;12.49;100.00;99714.19;5025408;28;20072;-76
2024/04/02 08:35:01;;;;;;;9.27;1.48;;;;;;;11.89;100.00;99607.56;5006901;28;20069;-76
2024/04/02 08:37:29;;;;;;;4.85;1.95;;;;;;;12.53;100.00;99712.22;4993331;28;20076;-77
2024/04/02 08:39:57;;;;;;;4.40;1.60;;;;;;;12.78;100.00;99714.94;5007946;28;20500;-76
2024/04/02 08:42:29;;;;;;;4.35;1.67;;;;;;;12.99;100.00;99717.97;5007101;28;20176;-76
2024/04/02 08:44:59;;;;;;;4.78;1.20;;;;;;;12.90;100.00;99690.22;5010710;28;20085;-76
2024/04/02 08:47:27;;;;;;;4.28;0.93;;;;;;;13.08;100.00;99709.34;5005091;28;20172;-77
2024/04/02 08:49:54;;;;;;;4.40;1.10;;;;;;;13.13;100.00;99719.69;5005779;28;20080;-78
2024/04/02 08:52:25;;;;;;;5.80;1.10;;;;;;;12.65;100.00;99725.53;5008160;28;20132;-77
2024/04/02 08:54:52;;;;;;;3.75;1.17;;;;;;;12.03;100.00;99694.25;5008665;28;20065;-77
2024/04/02 08:57:22;;;;;;;7.75;1.50;;;;;;;12.03;100.00;99729.59;5019034;28;20057;-76
2024/04/02 08:59:48;;;;;;;10.75;2.22;;;;;;;11.60;100.00;99665.09;5009413;28;20053;-77
2024/04/02 09:02:16;;;;;;;6.18;1.15;;;;;;;11.83;100.00;99732.63;5006980;28;20064;-77
2024/04/02 09:04:43;;;;;;;5.75;1.30;;;;;;;11.73;100.00;99723.53;5023387;28;20058;-77
2024/04/02 09:07:14;;;;;;;6.40;1.25;;;;;;;11.86;100.00;99740.41;5007171;28;20535;-77
2024/04/02 09:09:41;;;;;;;5.90;1.17;;;;;;;11.55;100.00;99670.69;4993486;28;20128;-76
2024/04/02 09:12:12;;;;;;;4.95;1.30;;;;;;;11.97;100.00;99737.06;5010881;28;20088;-76
2024/04/02 09:14:38;;;;;;;8.25;1.60;;;;;;;11.96;100.00;99752.19;5019509;28;20086;-76
2024/04/02 09:17:07;;;;;;;6.10;1.08;;;;;;;11.91;100.00;99746.28;4996723;28;20046;-76
2024/04/02 09:19:34;;;;;;;8.73;1.75;;;;;;;11.65;100.00;99720.53;5008475;28;20084;-76
2024/04/02 09:22:02;;;;;;;7.05;1.45;;;;;;;11.78;100.00;99753.31;5007608;28;20073;-77
2024/04/02 09:24:29;;;;;;;7.68;1.30;;;;;;;12.11;100.00;99745.91;5013336;28;20129;-77
2024/04/02 09:26:55;;;;;;;5.88;1.20;;;;;;;12.45;100.00;99741.91;5014012;28;20163;-76
2024/04/02 09:29:23;;;;;;;7.80;1.55;;;;;;;12.45;100.00;99743.72;5010084;28;20524;-76
2024/04/02 09:31:51;;;;;;;10.45;2.03;;;;;;;12.25;100.00;99732.59;4992143;28;20050;-76
2024/04/02 09:34:20;;;;;;;7.65;1.63;;;;;;;12.33;100.00;99748.00;5024995;28;20132;-78
2024/04/02 09:36:49;;;;;;;7.40;1.70;;;;;;;12.18;100.00;99735.72;4993773;28;20066;-77
2024/04/02 09:39:15;;;;;;;6.63;1.20;;;;;;;12.01;100.00;99723.53;5008043;28;20072;-78
2024/04/02 09:41:44;;;;;;;6.95;1.20;;;;;;;12.13;100.00;99759.91;5003199;28;20038;-77
2024/04/02 09:44:14;;;;;;;7.88;1.20;;;;;;;12.02;100.00;99748.25;4992044;28;20141;-78
2024/04/02 09:46:44;;;;;;;3.90;1.08;;;;;;;12.14;100.00;99769.56;5009799;28;20520;-79
2024/04/02 09:49:11;;;;;;;5.28;1.10;;;;;;;12.04;99.89;99755.19;5004078;28;20057;-76
2024/04/02 09:51:41;;;;;;;7.95;1.40;;;;;;;12.03;100.00;99758.78;5002258;28;20060;-77
2024/04/02 09:54:09;;;;;;;6.25;1.00;;;;;;;12.25;97.97;99755.63;4988077;28;20066;-77
2024/04/02 09:56:38;;;;;;;3.60;0.95;;;;;;;12.24;89.72;99749.47;4991120;28;20054;-76
2024/04/02 09:59:05;;;;;;;6.13;1.20;;;;;;;11.67;91.92;99665.56;5007208;28;20076;-77
2024/04/02 10:01:34;;;;;;;5.53;1.10;;;;;;;12.02;93.70;99730.53;4987906;28;20092;-77
2024/04/02 10:04:05;;;;;;;5.20;1.00;;;;;;;12.11;93.88;99743.25;5009316;28;20116;-76
2024/04/02 10:06:36;;;;;;;4.28;0.80;;;;;;;12.26;92.43;99762.66;4993070;28;20042;-77
2024/04/02 10:09:04;;;;;;;2.70;0.68;;;;;;;12.14;92.87;99756.28;5009453;28;20057;-76
2024/04/02 10:11:37;;;;;;;3.95;0.50;;;;;;;12.13;93.19;99748.44;5000846;28;20128;-79
2024/04/02 10:14:05;;;;;;;4.60;1.00;;;;;;;12.22;92.16;99766.44;5006322;28;20065;-77
2024/04/02 10:16:36;;;;;;;5.07;0.80;;;;;;;12.26;93.12;99758.19;5010489;28;20600;-78
2024/04/02 10:19:12;;;;;;;8.55;1.15;;;;;;;12.65;94.55;99757.41;4993343;28;20038;-76
2024/04/02 10:21:40;;;;;;;2.65;0.85;;;;;;;13.03;90.73;99758.47;5010767;28;20080;-76
2024/04/02 10:24:09;;;;;;;5.35;0.90;;;;;;;12.97;87.49;99691.47;4996065;28;20521;-76
2024/04/02 10:26:38;;;;;;;5.50;0.98;;;;;;;13.55;84.62;99732.69;5024842;28;20049;-77
2024/04/02 10:29:05;;;;;;;5.90;1.20;;;;;;;13.84;82.07;99753.78;5010762;28;20099;-78
2024/04/02 10:31:37;;;;;;;8.18;1.30;;;;;;;13.47;82.22;99753.66;5005351;28;20820;-77
2024/04/02 10:34:12;;;;;;;3.65;1.10;;;;;;;13.44;84.83;99755.69;5036636;28;20057;-78
2024/04/02 10:36:44;;;;;;;3.55;1.30;;;;;;;13.61;85.75;99753.56;5013966;28;20044;-76
2024/04/02 10:39:10;;;;;;;2.78;1.00;;;;;;;12.95;85.28;99658.84;5021479;28;20061;-76
2024/04/02 10:41:37;;;;;;;6.47;1.42;;;;;;;13.30;85.82;99748.66;4996564;28;20058;-77
2024/04/02 10:44:05;;;;;;;8.20;1.33;;;;;;;13.06;89.35;99727.25;5000084;28;20141;-77
2024/04/02 10:46:40;;;;;;;4.38;1.05;;;;;;;13.25;89.32;99751.63;5020849;28;20065;-77
2024/04/02 10:49:06;;;;;;;4.97;0.80;;;;;;;12.89;85.80;99707.09;5016834;28;20052;-78
2024/04/02 10:51:35;;;;;;;4.82;1.10;;;;;;;12.09;84.51;99593.88;5032885;28;20190;-76
2024/04/02 10:54:01;;;;;;;2.60;1.20;;;;;;;13.00;87.36;99760.38;5036082;28;20054;-78
2024/04/02 10:56:30;;;;;;;4.80;1.10;;;;;;;12.76;90.27;99695.56;5032643;28;20046;-78
2024/04/02 10:58:56;;;;;;;7.00;1.35;;;;;;;13.15;88.88;99763.00;5005197;28;20041;-77
2024/04/02 11:01:24;;;;;;;4.57;1.02;;;;;;;12.89;91.57;99748.78;4988727;28;20081;-77
2024/04/02 11:03:51;;;;;;;6.22;1.15;;;;;;;12.98;90.60;99759.63;5012617;28;20073;-76
2024/04/02 11:06:20;;;;;;;3.05;0.75;;;;;;;12.88;86.86;99768.31;5018301;28;20073;-76
2024/04/02 11:08:49;;;;;;;2.45;0.70;;;;;;;12.80;89.37;99749.38;4998030;28;20168;-77
2024/04/02 11:11:20;;;;;;;2.65;0.70;;;;;;;12.75;92.61;99778.88;5014637;28;20065;-77
2024/04/02 11:13:46;;;;;;;3.50;0.77;;;;;;;12.56;95.91;99767.78;5015330;28;20060;-76
2024/04/02 11:16:15;;;;;;;4.00;0.80;;;;;;;12.49;100.00;99777.94;5018836;28;20493;-76
2024/04/02 11:18:41;;;;;;;4.82;1.23;;;;;;;12.51;100.00;99753.94;4996627;28;20528;-76
2024/04/02 11:21:15;;;;;;;5.00;0.95;;;;;;;12.65;100.00;99770.69;4998005;28;20070;-77
2024/04/02 11:26:34;;;;;;;4.68;0.95;;;;;;;12.86;100.00;99767.56;5012839;28;20048;-77
2024/04/02 11:29:04;;;;;;;4.00;0.95;;;;;;;12.80;100.00;99752.88;5011821;28;20072;-78
2024/04/02 11:31:33;;;;;;;4.28;0.90;;;;;;;12.89;100.00;99773.53;4996973;28;20351;-77
2024/04/02 11:34:01;;;;;;;3.10;1.05;;;;;;;12.64;98.08;99773.44;5018535;28;20641;-78
2024/04/02 11:36:28;;;;;;;6.45;0.90;;;;;;;12.47;100.00;99771.00;4999404;28;20042;-77